Time;durP1;ratioP1;P1;durP2;ratioP2;P2;SDS_P1;SDS_P2;PMS_P1;PMS_P2;Temp;Humidity;BMP_temperature;BMP_pressure;BME280_temperature;BME280_humidity;BME280_pressure;Samples;Min_cycle;Max_cycle;Signal;HPM_P1;HPM_P2
2021/11/13 00:02:14;;;;;;;69.92;35.83;;;;;;;5.78;73.89;100416.66;2134831;83;29541;-64
2021/11/13 00:05:17;;;;;;;64.67;35.75;;;;;;;5.70;74.08;100411.56;2103299;84;32191;-62
2021/11/13 00:08:19;;;;;;;73.90;38.20;;;;;;;5.61;74.28;100406.48;2133762;83;33358;-63
2021/11/13 00:11:21;;;;;;;68.47;36.17;;;;;;;5.53;74.17;100410.67;2130328;83;29327;-69
2021/11/13 00:14:23;;;;;;;74.60;39.42;;;;;;;5.46;74.40;100405.12;2163164;82;27656;-68
2021/11/13 00:17:25;;;;;;;73.28;39.45;;;;;;;5.38;74.34;100405.30;2132327;83;29857;-69
2021/11/13 00:20:28;;;;;;;75.75;39.40;;;;;;;5.32;74.50;100405.48;2134882;83;32255;-67
2021/11/13 00:23:30;;;;;;;78.42;38.50;;;;;;;5.24;74.58;100402.14;2103825;84;32984;-70
2021/11/13 00:26:32;;;;;;;77.85;40.40;;;;;;;5.15;74.97;100401.92;2135210;83;29691;-69
2021/11/13 00:29:34;;;;;;;84.87;43.58;;;;;;;5.06;74.87;100404.83;2129930;83;27633;-69
2021/11/13 00:32:36;;;;;;;81.82;40.83;;;;;;;5.00;75.11;100403.20;2162996;82;29084;-70
2021/11/13 00:35:38;;;;;;;81.40;41.35;;;;;;;4.92;75.28;100402.06;2140190;83;32234;-69
2021/11/13 00:38:40;;;;;;;95.03;44.67;;;;;;;4.86;75.45;100392.47;2140446;83;33405;-69
2021/11/13 00:41:42;;;;;;;89.50;44.23;;;;;;;4.84;75.59;100398.70;2140225;82;30542;-67
2021/11/13 00:44:44;;;;;;;93.17;45.73;;;;;;;4.81;75.62;100396.12;2110636;83;27730;-69
2021/11/13 00:47:46;;;;;;;85.42;42.55;;;;;;;4.80;75.94;100394.41;2135080;83;29038;-64
2021/11/13 00:50:47;;;;;;;97.08;46.50;;;;;;;4.79;76.43;100393.52;2103279;84;31020;-68
2021/11/13 00:53:50;;;;;;;111.20;53.90;;;;;;;4.80;76.14;100393.94;2122615;83;33345;-68
2021/11/13 00:56:52;;;;;;;111.15;52.93;;;;;;;4.82;76.17;100400.52;2103434;83;29164;-69
2021/11/13 00:59:54;;;;;;;111.00;54.58;;;;;;;4.82;76.30;100388.58;2123301;83;27688;-69
2021/11/13 01:02:56;;;;;;;119.05;56.30;;;;;;;4.85;76.54;100385.86;2103527;84;28571;-67
2021/11/13 01:05:57;;;;;;;116.55;56.92;;;;;;;4.85;76.56;100386.75;2122818;83;32201;-68
2021/11/13 01:08:59;;;;;;;124.55;61.58;;;;;;;4.88;76.63;100382.27;2102995;84;34192;-65
2021/11/13 01:12:01;;;;;;;130.57;63.05;;;;;;;4.89;76.62;100381.33;2122789;83;30366;-63
2021/11/13 01:15:06;;;;;;;131.55;64.00;;;;;;;4.89;76.55;100384.88;2118329;83;27766;-63
2021/11/13 01:18:08;;;;;;;;;;;;;;;4.88;76.52;100379.15;2132983;83;28654;-64
2021/11/13 01:21:12;;;;;;;125.22;60.55;;;;;;;4.89;76.51;100375.59;2130217;83;32049;-62
2021/11/13 01:24:14;;;;;;;133.82;66.37;;;;;;;4.89;76.59;100380.00;2147586;82;33131;-62
2021/11/13 01:27:16;;;;;;;131.82;64.07;;;;;;;4.88;76.58;100372.52;2086135;85;29702;-63
2021/11/13 01:30:18;;;;;;;125.47;62.67;;;;;;;4.86;76.79;100363.71;2116225;83;27948;-63
2021/11/13 01:33:21;;;;;;;136.40;65.20;;;;;;;4.84;76.81;100359.78;2123445;83;29039;-63
2021/11/13 01:36:25;;;;;;;131.05;62.48;;;;;;;4.83;76.86;100361.12;2103286;84;31917;-64
2021/11/13 01:39:26;;;;;;;146.45;67.25;;;;;;;4.80;77.06;100353.27;2122926;83;32972;-62
2021/11/13 01:42:31;;;;;;;140.07;68.28;;;;;;;4.78;76.88;100355.94;2103167;83;29448;-62
2021/11/13 01:45:32;;;;;;;130.47;64.40;;;;;;;4.74;76.90;100348.95;2122898;83;27617;-62
2021/11/13 01:48:35;;;;;;;137.07;66.80;;;;;;;4.71;76.98;100342.42;2102971;84;29923;-62
2021/11/13 01:51:38;;;;;;;138.12;68.20;;;;;;;4.69;77.17;100348.22;2122737;83;31021;-63
2021/11/13 01:54:41;;;;;;;136.00;68.17;;;;;;;4.65;77.09;100345.22;2118007;83;34156;-65
2021/11/13 01:57:44;;;;;;;139.68;69.58;;;;;;;4.61;77.29;100340.45;2150247;82;30139;-62
2021/11/13 02:00:56;;;;;;;142.68;70.37;;;;;;;4.59;77.09;100340.94;2131306;83;27609;-71
2021/11/13 02:04:01;;;;;;;151.40;69.85;;;;;;;4.56;77.22;100344.98;2130972;82;28655;-62
2021/11/13 02:07:04;;;;;;;146.25;72.17;;;;;;;4.53;77.32;100347.27;2121142;83;31134;-63
2021/11/13 02:10:09;;;;;;;143.40;70.55;;;;;;;4.48;77.24;100337.65;2100545;84;33251;-62
2021/11/13 02:13:12;;;;;;;144.25;69.15;;;;;;;4.45;77.39;100333.30;2111320;83;30258;-71
2021/11/13 02:16:14;;;;;;;141.35;68.97;;;;;;;4.41;77.38;100333.84;2131397;83;27708;-71
2021/11/13 02:19:16;;;;;;;151.47;69.77;;;;;;;4.37;77.46;100330.83;2131477;83;28535;-71
2021/11/13 02:22:18;;;;;;;153.38;70.47;;;;;;;4.34;77.62;100328.24;2130946;83;31524;-70
2021/11/13 02:25:24;;;;;;;146.57;68.55;;;;;;;4.33;77.48;100325.64;2131160;83;33339;-72
2021/11/13 02:28:27;;;;;;;147.53;71.95;;;;;;;4.31;77.52;100330.96;2131247;83;30490;-72
2021/11/13 02:31:36;;;;;;;145.00;68.92;;;;;;;4.29;77.54;100323.95;2130988;83;27713;-72
2021/11/13 02:34:38;;;;;;;140.05;66.42;;;;;;;4.25;77.50;100313.89;2128868;82;29700;-72
2021/11/13 02:37:44;;;;;;;158.22;74.82;;;;;;;4.23;77.59;100321.00;2089118;85;31646;-72
2021/11/13 02:40:51;;;;;;;142.10;70.12;;;;;;;4.20;77.68;100318.41;2088646;84;33102;-71
2021/11/13 02:43:54;;;;;;;143.17;68.95;;;;;;;4.17;77.68;100315.39;2122554;83;30379;-72
2021/11/13 02:46:56;;;;;;;152.00;70.78;;;;;;;4.14;77.81;100319.43;2091727;85;27708;-71
2021/11/13 02:49:58;;;;;;;136.77;72.90;;;;;;;4.12;77.77;100317.27;2122573;83;29052;-72
2021/11/13 02:53:01;;;;;;;141.68;69.75;;;;;;;4.10;77.73;100311.13;2090985;85;32338;-66
2021/11/13 02:56:06;;;;;;;145.77;68.67;;;;;;;4.08;77.89;100312.94;2122853;83;33368;-70
2021/11/13 02:59:08;;;;;;;;;;;;;;;4.05;78.13;100304.61;2093917;85;30504;-71
2021/11/13 03:02:10;;;;;;;139.85;64.60;;;;;;;4.05;78.01;100300.63;2119042;83;27898;-71
2021/11/13 03:05:25;;;;;;;142.28;68.97;;;;;;;4.05;78.21;100300.63;2134910;82;29010;-71
2021/11/13 03:08:34;;;;;;;144.13;71.20;;;;;;;4.06;78.19;100299.72;2134641;83;31852;-69
2021/11/13 03:11:36;;;;;;;148.75;73.07;;;;;;;4.08;78.05;100303.66;2134325;83;33325;-71
2021/11/13 03:14:38;;;;;;;153.75;70.95;;;;;;;4.12;78.10;100316.41;2134915;83;29933;-72
2021/11/13 03:17:40;;;;;;;145.28;68.83;;;;;;;4.14;78.02;100304.84;2134345;83;27688;-72
2021/11/13 03:20:42;;;;;;;151.60;72.40;;;;;;;4.15;78.12;100306.59;2132883;83;29669;-71
2021/11/13 03:23:46;;;;;;;143.90;68.07;;;;;;;4.17;78.09;100295.94;2134431;83;32354;-72
2021/11/13 03:26:49;;;;;;;144.85;71.57;;;;;;;4.17;78.12;100301.25;2134195;83;32424;-72
2021/11/13 03:29:51;;;;;;;149.50;69.95;;;;;;;4.17;78.16;100298.16;2128523;83;30151;-73
2021/11/13 03:32:52;;;;;;;145.02;69.05;;;;;;;4.18;78.18;100302.98;2122960;83;27608;-62
2021/11/13 03:35:54;;;;;;;140.50;67.05;;;;;;;4.20;78.18;100297.20;2091282;85;28884;-62
2021/11/13 03:38:56;;;;;;;130.85;62.33;;;;;;;4.23;78.22;100300.64;2122501;83;31917;-62
2021/11/13 03:41:58;;;;;;;139.82;67.25;;;;;;;4.25;78.22;100301.48;2091417;85;33095;-62
2021/11/13 03:45:01;;;;;;;131.72;62.38;;;;;;;4.28;78.13;100302.33;2122202;83;30344;-62
2021/11/13 03:48:03;;;;;;;146.90;68.10;;;;;;;4.30;78.35;100297.42;2118083;83;28235;-66
2021/11/13 03:51:06;;;;;;;139.68;67.90;;;;;;;4.32;78.21;100304.86;2118152;83;28099;-62
2021/11/13 03:54:07;;;;;;;143.68;66.25;;;;;;;4.35;78.17;100297.30;2130127;83;31175;-62
2021/11/13 03:57:09;;;;;;;139.95;65.95;;;;;;;4.38;78.15;100295.44;2125466;83;33107;-64
2021/11/13 04:00:13;;;;;;;137.75;67.03;;;;;;;4.41;78.17;100291.84;2123050;83;29732;-67
2021/11/13 04:03:16;;;;;;;135.05;66.33;;;;;;;4.42;78.13;100282.97;2103692;84;27721;-62
2021/11/13 04:06:17;;;;;;;132.37;62.73;;;;;;;4.46;78.09;100288.63;2123013;83;29868;-61
2021/11/13 04:09:22;;;;;;;130.03;61.90;;;;;;;4.49;78.05;100287.67;2124792;83;31364;-63
2021/11/13 04:12:24;;;;;;;138.82;68.62;;;;;;;4.49;78.07;100284.58;2147956;82;34115;-62
2021/11/13 04:15:26;;;;;;;138.47;66.22;;;;;;;4.50;78.00;100284.99;2085784;84;28915;-63
2021/11/13 04:18:28;;;;;;;144.95;69.03;;;;;;;4.50;77.94;100289.41;2117166;83;27692;-62
2021/11/13 04:21:30;;;;;;;131.10;62.60;;;;;;;4.49;77.91;100285.91;2126044;83;28849;-62
2021/11/13 04:24:33;;;;;;;139.03;64.82;;;;;;;4.49;78.06;100281.92;2147378;82;32270;-62
2021/11/13 04:27:35;;;;;;;145.87;67.58;;;;;;;4.47;77.88;100283.73;2086432;85;33541;-62
2021/11/13 04:30:37;;;;;;;143.32;70.10;;;;;;;4.45;77.86;100290.00;2130006;83;30208;-65
2021/11/13 04:33:39;;;;;;;155.57;68.50;;;;;;;4.40;77.79;100287.00;2130319;83;27590;-62
2021/11/13 04:36:45;;;;;;;146.60;66.45;;;;;;;4.39;77.89;100289.67;2147775;82;28735;-62
2021/11/13 04:39:47;;;;;;;144.95;67.45;;;;;;;4.35;77.98;100291.53;2111170;84;32495;-62
2021/11/13 04:42:49;;;;;;;144.95;66.17;;;;;;;4.34;77.95;100293.77;2111367;84;33746;-63
2021/11/13 04:45:51;;;;;;;150.68;70.92;;;;;;;4.33;78.14;100288.52;2099287;83;29710;-64
2021/11/13 04:48:54;;;;;;;155.03;70.08;;;;;;;4.30;78.03;100288.14;2123564;83;27591;-63
2021/11/13 04:51:55;;;;;;;147.15;71.57;;;;;;;4.30;78.07;100292.13;2123027;83;29324;-62
2021/11/13 04:54:57;;;;;;;148.65;70.95;;;;;;;4.30;77.98;100292.13;2122637;83;31151;-62
2021/11/13 04:58:01;;;;;;;140.10;67.20;;;;;;;4.30;77.97;100289.47;2147779;82;33356;-63
2021/11/13 05:01:04;;;;;;;144.43;67.97;;;;;;;4.30;77.98;100293.88;2085864;85;29414;-62
2021/11/13 05:04:06;;;;;;;144.53;69.82;;;;;;;4.28;77.98;100290.39;2130525;83;27696;-62
2021/11/13 05:07:08;;;;;;;143.70;68.52;;;;;;;4.24;77.93;100296.23;2110404;83;29910;-64
2021/11/13 05:10:13;;;;;;;147.00;69.17;;;;;;;4.22;77.93;100303.34;2123030;83;31209;-63
2021/11/13 05:13:15;;;;;;;134.18;62.98;;;;;;;4.19;77.95;100305.63;2103609;84;33747;-63
2021/11/13 05:16:18;;;;;;;143.32;66.72;;;;;;;4.14;78.07;100309.30;2087566;85;29258;-62
2021/11/13 05:19:19;;;;;;;139.40;68.40;;;;;;;4.09;78.07;100300.98;2068962;85;27665;-63
2021/11/13 05:22:21;;;;;;;146.98;67.85;;;;;;;4.07;78.15;100304.56;2108504;83;29028;-64
2021/11/13 05:25:23;;;;;;;143.75;67.32;;;;;;;4.07;78.20;100304.13;2146681;82;32434;-63
2021/11/13 05:28:26;;;;;;;144.55;67.80;;;;;;;4.08;78.20;100310.28;2086045;84;33109;-62
2021/11/13 05:31:28;;;;;;;134.47;65.57;;;;;;;4.08;78.18;100308.52;2130306;83;29512;-63
2021/11/13 05:34:30;;;;;;;154.80;70.08;;;;;;;4.07;78.26;100306.77;2117038;83;27980;-63
2021/11/13 05:37:31;;;;;;;149.70;69.07;;;;;;;4.06;78.19;100309.00;2123075;83;29143;-63
2021/11/13 05:40:33;;;;;;;145.40;68.60;;;;;;;4.09;78.20;100312.91;2103405;84;31173;-61
2021/11/13 05:43:35;;;;;;;143.85;67.78;;;;;;;4.12;78.21;100312.44;2122546;83;33552;-63
2021/11/13 05:46:37;;;;;;;144.30;68.20;;;;;;;4.12;78.21;100318.59;2121385;83;29725;-68
2021/11/13 05:49:40;;;;;;;145.92;69.03;;;;;;;4.13;78.17;100322.98;2147691;82;27706;-65
2021/11/13 05:52:45;;;;;;;151.95;68.92;;;;;;;4.14;78.14;100331.36;2086054;84;28653;-66
2021/11/13 05:55:47;;;;;;;113.03;53.48;;;;;;;4.16;78.16;100324.25;2087629;84;31758;-63
2021/11/13 05:58:49;;;;;;;153.47;71.82;;;;;;;4.18;78.17;100329.50;2117181;84;33973;-63
2021/11/13 06:01:51;;;;;;;149.50;70.85;;;;;;;4.21;78.16;100335.63;2116778;84;29697;-64
2021/11/13 06:04:52;;;;;;;150.55;69.03;;;;;;;4.24;78.11;100330.70;2091411;85;28198;-65
2021/11/13 06:07:54;;;;;;;136.85;66.28;;;;;;;4.26;78.04;100333.73;2116804;84;29026;-64
2021/11/13 06:10:56;;;;;;;145.72;67.27;;;;;;;4.29;78.07;100338.11;2092536;84;32275;-63
2021/11/13 06:13:58;;;;;;;152.90;69.70;;;;;;;4.33;78.02;100330.95;2116778;84;33317;-65
2021/11/13 06:17:00;;;;;;;161.40;72.62;;;;;;;4.37;78.04;100333.95;2091678;85;29494;-66
2021/11/13 06:20:04;;;;;;;144.60;68.20;;;;;;;4.39;77.92;100338.73;2116740;84;28234;-63
2021/11/13 06:23:05;;;;;;;145.90;68.42;;;;;;;4.40;77.89;100341.38;2095151;84;28895;-63
2021/11/13 06:26:07;;;;;;;141.30;66.77;;;;;;;4.43;77.96;100345.72;2106568;84;30824;-66
2021/11/13 06:29:09;;;;;;;141.57;69.05;;;;;;;4.45;77.85;100351.02;2106161;84;33535;-63
2021/11/13 06:32:13;;;;;;;156.50;70.47;;;;;;;4.45;77.83;100353.20;2104130;84;29935;-63
2021/11/13 06:35:15;;;;;;;147.07;70.17;;;;;;;4.50;77.83;100355.73;2082956;85;28198;-61
2021/11/13 06:38:17;;;;;;;145.85;69.53;;;;;;;4.51;77.76;100358.80;2082876;85;28859;-61
2021/11/13 06:41:21;;;;;;;148.13;68.80;;;;;;;4.57;77.79;100362.65;2082970;85;31429;-60
2021/11/13 06:44:23;;;;;;;148.80;68.92;;;;;;;4.63;77.87;100358.97;2099332;84;32987;-63
2021/11/13 06:47:25;;;;;;;152.02;70.85;;;;;;;4.71;77.73;100358.34;2106487;84;29731;-61
2021/11/13 06:50:27;;;;;;;149.10;69.30;;;;;;;4.78;77.78;100363.91;2106796;84;27670;-61
2021/11/13 06:53:28;;;;;;;152.32;70.45;;;;;;;4.89;77.78;100362.31;2098321;84;29047;-61
2021/11/13 06:56:30;;;;;;;152.10;68.35;;;;;;;4.99;77.67;100362.95;2122913;83;31412;-61
2021/11/13 06:59:33;;;;;;;143.80;67.20;;;;;;;5.11;77.69;100367.08;2103744;84;33562;-62
2021/11/13 07:02:35;;;;;;;145.97;70.92;;;;;;;5.23;77.46;100368.08;2123116;83;29446;-70
2021/11/13 07:05:37;;;;;;;142.20;67.10;;;;;;;5.36;77.40;100375.72;2103971;84;27605;-64
2021/11/13 07:08:38;;;;;;;133.15;65.85;;;;;;;5.51;77.28;100371.78;2122372;83;29153;-62
2021/11/13 07:11:41;;;;;;;147.50;69.30;;;;;;;5.62;77.04;100375.89;2147919;82;31040;-64
2021/11/13 07:14:42;;;;;;;136.82;64.53;;;;;;;5.76;77.01;100371.97;2086445;84;33925;-61
2021/11/13 07:17:45;;;;;;;132.15;63.45;;;;;;;5.97;77.08;100369.14;2130059;83;29390;-61
2021/11/13 07:20:54;;;;;;;136.20;62.45;;;;;;;6.20;76.75;100367.14;2120163;83;27646;-61
2021/11/13 07:23:56;;;;;;;134.85;64.97;;;;;;;6.37;76.46;100373.27;2122682;83;28927;-61
2021/11/13 07:26:58;;;;;;;134.60;65.05;;;;;;;6.50;76.12;100370.24;2103176;84;32263;-60
2021/11/13 07:30:02;;;;;;;123.90;60.90;;;;;;;6.59;75.96;100371.27;2122719;83;33141;-62
2021/11/13 07:33:05;;;;;;;110.90;57.48;;;;;;;6.66;75.60;100370.16;2148016;82;29359;-62
2021/11/13 07:36:08;;;;;;;118.00;61.68;;;;;;;6.69;75.16;100365.19;2086372;85;27726;-61
2021/11/13 07:39:10;;;;;;;130.60;64.30;;;;;;;6.70;75.18;100369.59;2130363;83;29134;-61
2021/11/13 07:42:13;;;;;;;127.92;60.98;;;;;;;6.75;75.27;100369.44;2108134;83;31896;-61
2021/11/13 07:45:15;;;;;;;116.28;57.67;;;;;;;6.78;75.09;100364.02;2123113;83;32980;-64
2021/11/13 07:48:17;;;;;;;123.00;57.73;;;;;;;6.74;74.70;100371.69;2085870;84;30537;-62
2021/11/13 07:51:21;;;;;;;120.90;59.77;;;;;;;6.75;74.50;100370.33;2122243;83;27653;-61
2021/11/13 07:54:23;;;;;;;123.50;60.33;;;;;;;6.76;74.92;100372.06;2126638;83;29401;-63
2021/11/13 07:57:25;;;;;;;116.97;59.33;;;;;;;6.86;75.08;100373.97;2120529;83;32166;-61
2021/11/13 08:00:27;;;;;;;116.15;58.95;;;;;;;6.85;74.27;100374.89;2148522;82;34116;-62
2021/11/13 08:03:29;;;;;;;117.65;58.02;;;;;;;6.79;74.05;100371.94;2122447;83;30539;-62
2021/11/13 08:06:31;;;;;;;117.57;57.62;;;;;;;6.77;74.07;100370.27;2122818;83;27713;-61
2021/11/13 08:09:33;;;;;;;116.45;57.48;;;;;;;6.79;74.38;100372.42;2122868;83;29624;-61
2021/11/13 08:12:36;;;;;;;113.77;58.02;;;;;;;6.84;74.44;100366.48;2122841;82;32196;-61
2021/11/13 08:15:39;;;;;;;120.37;59.55;;;;;;;6.89;74.53;100363.66;2122708;83;32390;-65
2021/11/13 08:18:41;;;;;;;123.87;59.80;;;;;;;6.93;74.43;100364.84;2122427;83;30600;-64
2021/11/13 08:21:43;;;;;;;118.05;60.25;;;;;;;6.97;74.01;100358.49;2132834;82;27704;-61
2021/11/13 08:24:45;;;;;;;118.37;60.63;;;;;;;6.97;73.91;100357.61;2130970;83;29557;-64
2021/11/13 08:27:47;;;;;;;111.60;57.33;;;;;;;6.99;73.87;100353.09;2130934;83;32303;-61
2021/11/13 08:30:50;;;;;;;121.92;59.70;;;;;;;7.03;73.82;100349.89;2131071;83;34261;-61
2021/11/13 08:33:52;;;;;;;114.50;60.12;;;;;;;7.10;73.96;100348.30;2131252;83;29333;-62
2021/11/13 08:36:54;;;;;;;112.57;58.68;;;;;;;7.12;73.66;100350.42;2130143;83;27596;-62
2021/11/13 08:39:57;;;;;;;107.43;55.43;;;;;;;7.17;73.58;100349.40;2131117;82;29430;-61
2021/11/13 08:42:59;;;;;;;121.42;55.92;;;;;;;7.21;73.54;100345.23;2102401;83;31108;-64
2021/11/13 08:46:02;;;;;;;112.08;58.30;;;;;;;7.28;73.63;100349.44;2122459;83;34160;-61
2021/11/13 08:49:05;;;;;;;168.20;87.20;;;;;;;7.36;73.40;100346.98;2091002;85;30530;-61
2021/11/13 08:52:10;;;;;;;110.85;54.45;;;;;;;7.45;73.47;100351.97;2121391;83;27721;-61
2021/11/13 08:55:12;;;;;;;104.25;53.92;;;;;;;7.52;73.10;100347.28;2124502;83;29650;-65
2021/11/13 08:58:14;;;;;;;103.87;51.23;;;;;;;7.60;73.02;100348.73;2129975;83;32243;-61
2021/11/13 09:01:17;;;;;;;95.95;50.67;;;;;;;7.69;72.78;100348.02;2162790;82;34356;-61
2021/11/13 09:04:19;;;;;;;103.17;50.10;;;;;;;7.80;72.92;100348.47;2126383;83;29638;-63
2021/11/13 09:07:22;;;;;;;105.97;48.85;;;;;;;7.90;72.38;100350.33;2140368;83;27689;-70
2021/11/13 09:10:24;;;;;;;96.22;48.38;;;;;;;7.98;71.82;100346.89;2139436;83;28116;-67
2021/11/13 09:13:28;;;;;;;89.10;47.23;;;;;;;8.06;72.04;100360.83;2140715;82;31142;-67
2021/11/13 09:16:30;;;;;;;90.40;46.45;;;;;;;8.21;72.13;100354.48;2140442;83;33007;-63
2021/11/13 09:19:31;;;;;;;81.10;44.58;;;;;;;8.35;71.78;100353.48;2139979;83;29754;-64
2021/11/13 09:22:34;;;;;;;90.12;44.18;;;;;;;8.48;71.51;100345.89;2140383;83;27722;-66
2021/11/13 09:25:37;;;;;;;78.45;44.18;;;;;;;8.65;71.27;100347.01;2140638;83;28658;-62
2021/11/13 09:28:40;;;;;;;85.38;44.65;;;;;;;8.80;71.21;100340.14;2140183;83;32242;-63
2021/11/13 09:31:42;;;;;;;87.25;42.43;;;;;;;8.93;70.32;100336.50;2140515;83;34121;-61
2021/11/13 09:34:44;;;;;;;84.75;43.80;;;;;;;9.05;70.48;100337.78;2140548;82;29351;-60
2021/11/13 09:37:46;;;;;;;83.97;44.58;;;;;;;9.19;70.35;100342.06;2138678;83;27737;-61
2021/11/13 09:40:49;;;;;;;85.17;47.78;;;;;;;9.33;69.55;100339.25;2140846;83;28683;-61
2021/11/13 09:43:51;;;;;;;93.15;52.40;;;;;;;9.40;69.57;100339.40;2140541;83;31877;-60
2021/11/13 09:46:59;;;;;;;93.05;52.20;;;;;;;9.50;69.54;100342.05;2113320;82;33940;-61
2021/11/13 09:50:04;;;;;;;87.27;49.38;;;;;;;9.62;69.14;100333.95;2135276;83;30027;-62
2021/11/13 09:53:08;;;;;;;80.92;44.38;;;;;;;9.73;69.41;100332.13;2103471;84;27945;-61
2021/11/13 09:56:10;;;;;;;79.58;43.63;;;;;;;9.90;69.00;100334.50;2125989;83;29095;-61
2021/11/13 09:59:12;;;;;;;85.45;44.00;;;;;;;10.08;68.67;100338.11;2103073;84;31501;-61
2021/11/13 10:02:14;;;;;;;76.92;41.92;;;;;;;10.20;68.61;100318.78;2123113;83;33757;-60
2021/11/13 10:05:16;;;;;;;76.70;42.70;;;;;;;10.36;68.66;100326.96;2103349;84;29684;-61
2021/11/13 10:08:19;;;;;;;75.90;42.35;;;;;;;10.52;68.47;100332.94;2120959;83;27713;-65
2021/11/13 10:11:25;;;;;;;77.72;41.30;;;;;;;10.64;68.06;100327.86;2125713;83;28143;-67
2021/11/13 10:14:40;;;;;;;82.67;41.95;;;;;;;10.72;66.91;100331.49;2087238;85;30629;-70
2021/11/13 10:17:43;;;;;;;75.05;40.20;;;;;;;10.71;67.24;100324.40;2096989;84;33935;-61
2021/11/13 10:21:00;;;;;;;74.92;40.58;;;;;;;10.75;66.59;100326.44;2103454;83;29359;-63
2021/11/13 10:24:07;;;;;;;75.60;40.80;;;;;;;10.73;66.75;100326.53;2067913;85;27714;-62
2021/11/13 10:27:28;;;;;;;73.80;39.48;;;;;;;10.66;65.66;100325.58;2083122;84;29070;-60
2021/11/13 10:30:30;;;;;;;70.22;39.70;;;;;;;10.57;66.05;100329.58;2028303;87;31445;-60
2021/11/13 10:33:33;;;;;;;72.17;39.33;;;;;;;10.55;66.05;100316.23;2027782;87;34219;-61
2021/11/13 10:36:39;;;;;;;66.47;37.58;;;;;;;10.56;66.15;100310.43;2025787;87;30480;-65
2021/11/13 10:39:44;;;;;;;77.15;38.92;;;;;;;10.59;65.70;100304.44;2015880;88;28254;-71
2021/11/13 10:42:51;;;;;;;64.63;37.37;;;;;;;10.65;65.78;100303.26;2016138;88;28631;-63
2021/11/13 10:46:04;;;;;;;70.10;38.13;;;;;;;10.62;64.89;100298.05;2010845;88;31413;-66
2021/11/13 10:49:07;;;;;;;72.85;40.78;;;;;;;10.66;65.37;100306.82;2015422;88;33124;-62
2021/11/13 10:52:10;;;;;;;75.28;40.15;;;;;;;10.72;65.07;100303.81;2015741;87;30199;-66
2021/11/13 10:55:17;;;;;;;66.92;38.15;;;;;;;10.76;65.07;100302.72;2016105;88;27723;-62
2021/11/13 10:58:35;;;;;;;66.60;37.78;;;;;;;10.79;64.82;100299.41;2015906;88;29970;-61
2021/11/13 11:01:48;;;;;;;72.62;37.20;;;;;;;10.85;64.94;100294.20;2015926;88;31139;-62
2021/11/13 11:04:50;;;;;;;63.05;35.50;;;;;;;10.88;63.96;100294.05;2016097;88;33314;-63
2021/11/13 11:07:52;;;;;;;62.45;36.83;;;;;;;10.92;64.12;100290.77;2020390;87;29663;-61
2021/11/13 11:10:54;;;;;;;57.75;36.55;;;;;;;10.97;64.63;100285.16;1995757;88;27777;-68
2021/11/13 11:14:00;;;;;;;57.93;34.63;;;;;;;11.06;64.05;100284.22;2021283;87;29897;-63
2021/11/13 11:17:15;;;;;;;63.35;35.58;;;;;;;11.13;63.65;100285.22;2021693;87;31035;-70
2021/11/13 11:20:18;;;;;;;59.88;34.80;;;;;;;11.16;63.23;100277.91;2021444;87;33428;-63
2021/11/13 11:23:20;;;;;;;57.48;32.80;;;;;;;11.19;62.78;100279.05;2021772;87;29227;-65
2021/11/13 11:26:23;;;;;;;54.18;33.60;;;;;;;11.24;62.71;100274.81;2021493;88;28260;-63
2021/11/13 11:29:27;;;;;;;48.35;29.65;;;;;;;11.33;62.87;100275.66;2020443;88;29463;-67
2021/11/13 11:32:42;;;;;;;46.45;29.32;;;;;;;11.42;62.79;100275.64;2019897;88;31246;-71
2021/11/13 11:35:44;;;;;;;;;;;;;;;11.53;61.99;100268.36;2022410;88;33067;-64
2021/11/13 11:38:46;;;;;;;38.95;24.75;;;;;;;11.60;62.13;100260.34;2086491;85;30120;-63
2021/11/13 11:41:49;;;;;;;40.95;25.95;;;;;;;11.64;61.35;100262.41;2086628;85;27693;-65
2021/11/13 11:44:53;;;;;;;36.85;22.98;;;;;;;11.69;62.02;100263.88;2086886;85;28843;-65
2021/11/13 11:47:57;;;;;;;33.03;22.73;;;;;;;11.67;60.53;100259.07;2086532;85;32239;-68
2021/11/13 11:51:02;;;;;;;35.28;23.07;;;;;;;11.63;60.73;100251.28;2086661;85;33017;-66
2021/11/13 11:54:05;;;;;;;;;;;;;;;11.61;60.66;100254.52;2089198;85;30101;-68
2021/11/13 11:57:10;;;;;;;30.17;19.45;;;;;;;11.61;60.44;100262.08;2086827;85;27719;-63
2021/11/13 12:00:15;;;;;;;;;;;;;;;11.55;59.51;100260.60;2089569;84;28795;-63
2021/11/13 12:03:35;;;;;;;44.42;26.65;;;;;;;11.48;59.75;100258.34;2086870;85;31053;-64
2021/11/13 12:06:53;;;;;;;32.98;21.45;;;;;;;11.41;60.02;100256.47;2067060;85;33998;-67
2021/11/13 12:10:09;;;;;;;33.85;21.87;;;;;;;11.33;59.86;100260.91;2004816;88;30207;-72
2021/11/13 12:13:15;;;;;;;36.53;23.77;;;;;;;11.28;60.22;100265.63;2012791;88;27614;-72
2021/11/13 12:16:27;;;;;;;35.13;22.42;;;;;;;11.29;60.21;100262.00;2005083;88;28633;-63
2021/11/13 12:19:29;;;;;;;34.55;21.77;;;;;;;11.32;60.19;100257.83;2004755;88;32235;-67
2021/11/13 12:22:49;;;;;;;33.25;22.17;;;;;;;11.31;60.09;100264.63;2012721;88;33559;-63
2021/11/13 12:26:02;;;;;;;34.35;20.48;;;;;;;11.31;59.97;100262.80;2005328;88;29320;-69
2021/11/13 12:29:13;;;;;;;31.62;20.12;;;;;;;11.32;59.47;100259.66;2005167;87;27615;-72
2021/11/13 12:32:15;;;;;;;32.13;20.00;;;;;;;11.33;59.07;100262.24;2005232;88;29548;-69
2021/11/13 12:35:20;;;;;;;34.18;21.97;;;;;;;11.37;59.60;100259.80;2013007;88;32261;-74
2021/11/13 12:38:35;;;;;;;33.88;20.25;;;;;;;11.45;59.55;100249.11;2005899;88;33749;-63
2021/11/13 12:41:48;;;;;;;34.30;21.30;;;;;;;11.51;59.01;100260.86;2005571;88;30470;-63
2021/11/13 12:44:59;;;;;;;31.48;20.68;;;;;;;11.53;59.02;100255.80;2005428;88;27695;-68
2021/11/13 12:48:08;;;;;;;32.93;20.12;;;;;;;11.58;59.08;100248.86;2005258;88;30013;-70
2021/11/13 12:51:19;;;;;;;30.10;20.30;;;;;;;11.62;59.26;100249.05;2005509;88;31850;-68
2021/11/13 12:54:34;;;;;;;37.73;22.62;;;;;;;11.67;58.96;100252.82;2005215;88;32969;-63
2021/11/13 12:57:42;;;;;;;29.65;19.70;;;;;;;11.72;58.68;100254.78;2005234;88;30155;-69
2021/11/13 13:00:53;;;;;;;38.50;21.93;;;;;;;11.75;57.83;100250.59;2013058;88;27709;-72
2021/11/13 13:04:00;;;;;;;34.43;22.02;;;;;;;11.75;58.43;100244.37;2005326;88;28623;-74
2021/11/13 13:07:03;;;;;;;37.55;22.27;;;;;;;11.72;58.12;100240.03;2005561;88;31405;-72
2021/11/13 13:10:11;;;;;;;30.90;21.27;;;;;;;11.73;58.50;100244.45;2005459;88;33050;-72
2021/11/13 13:13:16;;;;;;;34.75;21.82;;;;;;;11.73;57.95;100239.56;2005254;88;30510;-71
2021/11/13 13:16:18;;;;;;;33.00;21.77;;;;;;;11.68;58.10;100248.73;2005729;88;27558;-70
2021/11/13 13:19:33;;;;;;;38.78;22.93;;;;;;;11.62;57.95;100249.55;2005431;88;29895;-73
2021/11/13 13:22:37;;;;;;;35.95;22.80;;;;;;;11.53;57.70;100250.42;2005240;88;31292;-64
2021/11/13 13:25:46;;;;;;;36.40;22.30;;;;;;;11.42;57.48;100253.33;2005422;88;33124;-63
2021/11/13 13:28:51;;;;;;;38.13;24.70;;;;;;;11.28;57.56;100259.42;2005549;87;29368;-63
2021/11/13 13:32:10;;;;;;;42.13;27.13;;;;;;;11.18;57.98;100263.06;1990189;88;27710;-68
2021/11/13 13:35:14;;;;;;;38.58;23.50;;;;;;;11.09;57.99;100263.92;2035667;87;29646;-67
2021/11/13 13:38:22;;;;;;;38.30;25.02;;;;;;;11.00;58.09;100260.39;2037227;85;31043;-63
2021/11/13 13:41:24;;;;;;;39.95;24.43;;;;;;;10.93;58.09;100267.89;2079876;85;34413;-63
2021/11/13 13:44:26;;;;;;;138.85;95.75;;;;;;;10.83;57.97;100269.33;2080264;85;29434;-63
2021/11/13 13:47:29;;;;;;;41.20;27.22;;;;;;;10.73;58.26;100267.59;2080089;85;27641;-62
2021/11/13 13:50:33;;;;;;;40.73;25.08;;;;;;;10.66;58.28;100266.63;2078636;85;29449;-63
2021/11/13 13:53:49;;;;;;;42.05;25.65;;;;;;;10.55;58.43;100265.34;2012933;88;31124;-63
2021/11/13 13:56:57;;;;;;;41.68;25.43;;;;;;;10.47;58.55;100270.23;2013268;88;33985;-63
2021/11/13 14:00:03;;;;;;;41.70;26.30;;;;;;;10.38;58.75;100272.89;2045047;85;29239;-63